Погода Бом Деспаршона неделю

Минас-Жерайс, Бразилия

19 - 25 июня
  • 19июня
    Сегодня
    +14°
    +27°
    Ясно и безоблачно
    ВремяПогодаТемператураВлажностьДавлениеВетер, м/сВероятность осадков
    00:00Ясно и безоблачно+16°C76 %699 мм1.4 м/с5 %
    03:00Ясно и безоблачно+16°C70 %700 мм2.9 м/с5 %
    06:00Ясно и безоблачно+15°C74 %700 мм2.4 м/с5 %
    09:00Ясно и безоблачно+19°C58 %703 мм0.6 м/с5 %
    12:00Ясно и безоблачно+25°C39 %703 мм2.3 м/с5 %
    15:00Ясно и безоблачно+26°C36 %701 мм2.4 м/с5 %
    18:00Ясно и безоблачно+24°C45 %701 мм1.5 м/с5 %
    21:00Ясно и безоблачно+20°C59 %701 мм2.1 м/с5 %
  • 20июня
    Четверг
    +15°
    +28°
    Ясно и безоблачно
    ВремяПогодаТемператураВлажностьДавлениеВетер, м/сВероятность осадков
    00:00Ясно и безоблачно+17°C68 %701 мм3.1 м/с5 %
    03:00Ясно и безоблачно+16°C69 %700 мм2.8 м/с5 %
    06:00Ясно и безоблачно+16°C74 %700 мм2.7 м/с5 %
    09:00Ясно и безоблачно+20°C57 %703 мм1.6 м/с5 %
    12:00Ясно и безоблачно+25°C39 %702 мм1.2 м/с5 %
    15:00Ясно и безоблачно+27°C37 %701 мм0.5 м/с5 %
    18:00Ясно и безоблачно+23°C46 %701 мм1.7 м/с5 %
    21:00Ясно и безоблачно+20°C54 %701 мм1.9 м/с5 %
  • 21июня
    Пятница
    +16°
    +28°
    Небольшая облачность
    ВремяПогодаТемператураВлажностьДавлениеВетер, м/сВероятность осадков
    00:00Ясно и безоблачно+17°C64 %701 мм1.9 м/с5 %
    03:00Ясно и безоблачно+16°C70 %700 мм2.4 м/с5 %
    06:00Ясно и безоблачно+16°C82 %700 мм3.0 м/с5 %
    09:00Ясно и безоблачно+20°C69 %703 мм3.1 м/с5 %
    12:00Практически безоблачно+26°C45 %702 мм2.5 м/с5 %
    15:00Небольшая облачность+27°C37 %701 мм2.5 м/с5 %
    18:00Облачно с прояснениями+23°C47 %700 мм2.5 м/с5 %
    21:00Облачно с прояснениями+22°C47 %701 мм3.4 м/с5 %
  • 22июня
    Суббота
    +15°
    +26°
    Небольшая облачность
    ВремяПогодаТемператураВлажностьДавлениеВетер, м/сВероятность осадков
    00:00Пасмурно, сплошная облачность+21°C57 %702 мм3.6 м/с3 %
    03:00Практически безоблачно+18°C70 %701 мм1.9 м/с7 %
    06:00Ясно и безоблачно+18°C71 %701 мм3.1 м/с5 %
    09:00Облачно с прояснениями+20°C65 %703 мм2.6 м/с3 %
    12:00Небольшая облачность+25°C44 %702 мм2.8 м/с5 %
    15:00Небольшая облачность+26°C39 %701 мм2.4 м/с5 %
    18:00Ясно и безоблачно+22°C55 %700 мм1.9 м/с5 %
    21:00Практически безоблачно+21°C62 %700 мм1.2 м/с3 %
  • 23июня
    Воскресенье
    +15°
    +28°
    Ясно и безоблачно
    ВремяПогодаТемператураВлажностьДавлениеВетер, м/сВероятность осадков
    00:00Облачно с прояснениями+19°C61 %700 мм3.4 м/с5 %
    03:00Практически безоблачно+18°C59 %700 мм2.8 м/с5 %
    06:00Ясно и безоблачно+16°C71 %700 мм1.9 м/с5 %
    09:00Ясно и безоблачно+20°C57 %702 мм2.4 м/с5 %
    12:00Ясно и безоблачно+26°C40 %702 мм3.0 м/с5 %
    15:00Ясно и безоблачно+27°C36 %700 мм2.4 м/с5 %
    18:00Ясно и безоблачно+23°C54 %700 мм2.3 м/с5 %
    21:00Ясно и безоблачно+22°C53 %700 мм2.6 м/с5 %
Мы используем cookies
Соглашаюсь